In Rescue
 
Open Full Screen Window  High Contrast Mode
Wind Gusting 17 knots
11
July 22, 2019 3:26 PM CDT
Weather Information
Wind Direction
  340 °
Wind Speed
  11 kt (13 mph)
Wind Gust
  17 kt (20 mph)
Altimeter
30.25 in
Visibility
10 SM
Temperature
25° C
77° F
Dewpoint
13° C
55° F
Humidity
47%
1hr Rain Fall
00.00 in.
24hr Rain Fall
00.00 in.
Sky Condition
Scattered @ 6,500 ft
VFR

METAR KHCD 222026Z AUTO 34011G17KT 10SM SCT065 25/13 A3025 RMK AO2 T02460125

FAA Disclaimer: The data displayed is for advisory purposes only and is not to be used for flight planning or operations.